Time;durP1;ratioP1;P1;durP2;ratioP2;P2;SDS_P1;SDS_P2;PMS_P1;PMS_P2;Temp;Humidity;BMP_temperature;BMP_pressure;BME280_temperature;BME280_humidity;BME280_pressure;Samples;Min_cycle;Max_cycle;Signal;HPM_P1;HPM_P2
2023/10/16 00:01:28;;;;;;;3.90;0.98;;;;;;;7.01;100.00;100620.69;5093014;28;19920;-77
2023/10/16 00:03:58;;;;;;;1.42;0.68;;;;;;;7.09;100.00;100617.13;5093246;28;20123;-78
2023/10/16 00:06:23;;;;;;;4.22;1.17;;;;;;;7.16;100.00;100618.13;5093866;28;20056;-78
2023/10/16 00:09:10;;;;;;;2.38;1.00;;;;;;;7.16;100.00;100616.06;5075672;28;20085;-79
2023/10/16 00:11:37;;;;;;;1.38;1.15;;;;;;;7.27;100.00;100627.84;5093361;28;20095;-79
2023/10/16 00:14:24;;;;;;;3.67;1.10;;;;;;;7.34;100.00;100626.78;5092942;28;20024;-77
2023/10/16 00:16:50;;;;;;;3.85;0.85;;;;;;;7.26;100.00;100606.38;5092377;28;20480;-78
2023/10/16 00:19:16;;;;;;;3.03;1.23;;;;;;;7.42;100.00;100628.13;5091857;28;20024;-77
2023/10/16 00:21:52;;;;;;;4.22;1.17;;;;;;;7.45;100.00;100625.13;5073762;28;20058;-77
2023/10/16 00:24:19;;;;;;;1.92;1.05;;;;;;;7.48;100.00;100635.56;5092019;28;20348;-77
2023/10/16 00:26:49;;;;;;;8.00;1.05;;;;;;;7.47;100.00;100619.75;5092823;28;20081;-77
2023/10/16 00:29:35;;;;;;;2.30;1.23;;;;;;;7.52;100.00;100632.63;5092361;28;20020;-77
2023/10/16 00:32:07;;;;;;;2.35;0.80;;;;;;;7.63;100.00;100627.28;5077586;28;20028;-76
2023/10/16 00:34:34;;;;;;;;;;;;;;;7.65;100.00;100615.47;5076053;28;20453;-78
2023/10/16 00:37:13;;;;;;;2.50;1.00;;;;;;;7.61;100.00;100621.28;5074500;28;19951;-76
2023/10/16 00:39:45;;;;;;;1.08;0.90;;;;;;;7.63;100.00;100627.28;5091713;28;20020;-78
2023/10/16 00:42:17;;;;;;;3.75;0.90;;;;;;;7.60;100.00;100619.69;5091508;28;20040;-77
2023/10/16 00:44:42;;;;;;;1.98;0.90;;;;;;;7.59;100.00;100620.16;5073487;28;20039;-80
2023/10/16 00:47:12;;;;;;;4.10;1.42;;;;;;;7.59;100.00;100626.63;5073574;28;20028;-78
2023/10/16 00:49:38;;;;;;;2.85;1.15;;;;;;;7.56;100.00;100636.09;5095278;28;20032;-78
2023/10/16 00:52:05;;;;;;;3.10;1.02;;;;;;;7.51;100.00;100642.41;5078492;28;20032;-77
2023/10/16 00:54:39;;;;;;;5.18;1.70;;;;;;;7.45;100.00;100632.88;5096746;28;20531;-79
2023/10/16 00:57:07;;;;;;;2.80;1.15;;;;;;;7.44;100.00;100631.28;5078991;28;20052;-79
2023/10/16 00:59:35;;;;;;;4.72;1.40;;;;;;;7.39;100.00;100632.66;5096211;28;20428;-77
2023/10/16 01:02:12;;;;;;;3.95;1.25;;;;;;;7.32;100.00;100638.63;5096509;28;20027;-79
2023/10/16 01:04:52;;;;;;;1.95;1.02;;;;;;;7.23;100.00;100644.22;5078328;28;20089;-78
2023/10/16 01:07:19;;;;;;;3.10;1.02;;;;;;;7.12;100.00;100638.16;5062201;28;20036;-79
2023/10/16 01:09:59;;;;;;;3.65;0.88;;;;;;;7.02;100.00;100640.13;5096428;28;20028;-77
2023/10/16 01:12:25;;;;;;;2.55;0.80;;;;;;;6.96;100.00;100635.47;5096154;28;20457;-77
2023/10/16 01:14:51;;;;;;;3.53;0.88;;;;;;;6.89;100.00;100639.34;5061657;28;20120;-80
2023/10/16 01:17:29;;;;;;;10.88;1.23;;;;;;;6.82;100.00;100631.09;5077733;28;20027;-79
2023/10/16 01:19:56;;;;;;;3.58;1.05;;;;;;;6.77;100.00;100630.88;5079985;28;20384;-78
2023/10/16 01:22:22;;;;;;;3.83;1.20;;;;;;;6.77;100.00;100633.72;5096039;28;20110;-78
2023/10/16 01:24:51;;;;;;;1.92;1.27;;;;;;;6.68;100.00;100613.75;5096055;28;20088;-78
2023/10/16 01:27:26;;;;;;;8.52;1.55;;;;;;;6.70;100.00;100623.41;5095941;28;20024;-78
2023/10/16 01:29:57;;;;;;;2.58;0.70;;;;;;;6.63;100.00;100635.78;5095616;28;20472;-78
2023/10/16 01:32:25;;;;;;;6.78;1.23;;;;;;;6.56;100.00;100630.38;5061379;28;20024;-77
2023/10/16 01:34:51;;;;;;;4.40;1.23;;;;;;;6.50;100.00;100626.50;5078074;28;20028;-78
2023/10/16 01:37:18;;;;;;;2.10;1.15;;;;;;;6.41;100.00;100622.78;5095828;28;20030;-78
2023/10/16 01:40:37;;;;;;;2.78;0.95;;;;;;;6.41;100.00;100625.63;5095870;28;20028;-79
2023/10/16 01:42:55;;;;;;;2.67;1.40;;;;;;;6.32;100.00;100614.97;5093934;28;20040;-78
2023/10/16 01:45:21;;;;;;;2.03;0.80;;;;;;;6.32;100.00;100626.31;5097302;28;20032;-79
2023/10/16 01:47:47;;;;;;;3.63;1.13;;;;;;;6.25;100.00;100627.31;5062357;28;20036;-79
2023/10/16 01:50:26;;;;;;;3.03;1.00;;;;;;;6.21;100.00;100626.63;5045071;28;20139;-78
2023/10/16 01:52:54;;;;;;;1.75;0.82;;;;;;;6.21;100.00;100637.97;5064506;28;20409;-78
2023/10/16 01:55:21;;;;;;;1.58;0.60;;;;;;;6.19;100.00;100631.16;5095524;28;20378;-77
2023/10/16 01:57:47;;;;;;;4.72;1.17;;;;;;;6.18;100.00;100629.59;5095697;28;20028;-77
2023/10/16 02:00:24;;;;;;;2.15;0.80;;;;;;;6.16;100.00;100630.03;5073609;28;20063;-79
2023/10/16 02:02:52;;;;;;;1.85;1.13;;;;;;;6.10;100.00;100631.84;5075434;28;20115;-79
2023/10/16 02:05:20;;;;;;;3.55;1.63;;;;;;;6.12;100.00;100632.22;5075646;28;20091;-79
2023/10/16 02:07:45;;;;;;;5.63;1.00;;;;;;;6.08;100.00;100634.38;5075909;28;20029;-78
2023/10/16 02:10:12;;;;;;;1.88;0.90;;;;;;;6.06;100.00;100627.53;5073824;28;20388;-77
2023/10/16 02:12:39;;;;;;;3.63;1.08;;;;;;;6.04;100.00;100630.06;5075435;28;20025;-77
2023/10/16 02:15:08;;;;;;;4.05;1.00;;;;;;;6.01;100.00;100636.63;5073920;28;20025;-78
2023/10/16 02:17:54;;;;;;;2.97;0.85;;;;;;;5.99;100.00;100628.56;5074170;28;20153;-78
2023/10/16 02:20:26;;;;;;;2.20;1.30;;;;;;;5.98;100.00;100638.34;5074533;28;20067;-78
2023/10/16 02:22:53;;;;;;;3.63;1.00;;;;;;;5.97;100.00;100631.06;5073511;28;20040;-77
2023/10/16 02:25:19;;;;;;;4.55;0.95;;;;;;;5.92;100.00;100634.47;5073531;28;20037;-77
2023/10/16 02:27:46;;;;;;;2.00;0.90;;;;;;;5.90;100.00;100625.59;5075110;28;20024;-76
2023/10/16 02:30:28;;;;;;;2.95;0.90;;;;;;;5.90;100.00;100631.28;5073766;28;20047;-77
2023/10/16 02:33:22;;;;;;;3.28;1.05;;;;;;;5.85;100.00;100633.88;5074803;28;20040;-78
2023/10/16 02:35:53;;;;;;;6.53;1.75;;;;;;;5.81;100.00;100625.50;5074480;28;20062;-79
2023/10/16 02:38:29;;;;;;;6.15;1.83;;;;;;;5.85;100.00;100634.69;5057126;28;20027;-78
2023/10/16 02:41:02;;;;;;;5.15;1.20;;;;;;;5.84;100.00;100638.78;5072978;28;20024;-77
2023/10/16 02:43:29;;;;;;;2.97;0.93;;;;;;;5.82;100.00;100642.06;5073492;28;20370;-80
2023/10/16 02:45:57;;;;;;;2.75;0.95;;;;;;;5.81;100.00;100634.00;5073299;28;20032;-77
2023/10/16 02:48:25;;;;;;;3.70;1.35;;;;;;;5.78;100.00;100643.41;5073083;28;20040;-78
2023/10/16 02:50:54;;;;;;;4.75;1.05;;;;;;;5.75;100.00;100639.44;5074467;28;20035;-78
2023/10/16 02:53:24;;;;;;;1.38;0.95;;;;;;;5.78;100.00;100651.94;5074079;28;20020;-77
2023/10/16 02:56:08;;;;;;;4.95;1.40;;;;;;;5.78;100.00;100654.75;5073348;28;20028;-78
2023/10/16 02:58:37;;;;;;;4.57;1.45;;;;;;;5.76;100.00;100658.03;5074368;28;20438;-76
2023/10/16 03:01:13;;;;;;;3.42;1.38;;;;;;;5.76;100.00;100663.72;5087017;28;20063;-78
2023/10/16 03:03:42;;;;;;;1.80;0.98;;;;;;;5.74;100.00;100660.53;5080360;28;20036;-78
2023/10/16 03:06:09;;;;;;;4.05;1.02;;;;;;;5.72;100.00;100668.69;5094428;28;20046;-78
2023/10/16 03:08:37;;;;;;;3.72;1.30;;;;;;;5.73;100.00;100675.16;5094388;28;20043;-77
2023/10/16 03:11:06;;;;;;;2.50;1.55;;;;;;;5.72;100.00;100677.19;5075302;28;20060;-79
2023/10/16 03:13:36;;;;;;;4.70;1.20;;;;;;;5.69;100.00;100674.47;5076383;28;20119;-79
2023/10/16 03:16:07;;;;;;;6.95;1.45;;;;;;;5.64;100.00;100673.00;5076752;28;20082;-76
2023/10/16 03:18:34;;;;;;;4.35;1.20;;;;;;;5.65;100.00;100680.22;5076492;28;20448;-78
2023/10/16 03:21:26;;;;;;;3.60;1.20;;;;;;;5.66;100.00;100676.16;5094110;28;20100;-77
2023/10/16 03:23:51;;;;;;;5.43;1.10;;;;;;;5.65;100.00;100674.56;5094020;28;20331;-77
2023/10/16 03:26:28;;;;;;;3.55;1.10;;;;;;;5.58;100.00;100669.13;5076137;28;20038;-77
2023/10/16 03:29:04;;;;;;;3.33;1.40;;;;;;;5.62;100.00;100678.31;5092525;28;20476;-78
2023/10/16 03:31:30;;;;;;;5.07;1.30;;;;;;;5.62;100.00;100680.34;5095167;28;20039;-80
2023/10/16 03:33:56;;;;;;;3.17;1.42;;;;;;;5.61;100.00;100687.25;5078976;28;20032;-77
2023/10/16 03:36:22;;;;;;;2.85;1.38;;;;;;;5.59;100.00;100687.72;5077437;28;20528;-78
2023/10/16 03:38:50;;;;;;;3.67;2.58;;;;;;;5.59;100.00;100693.41;5060040;28;20031;-78
2023/10/16 03:43:56;;;;;;;3.25;1.30;;;;;;;5.59;100.00;100693.41;5058753;28;20044;-79
2023/10/16 03:46:28;;;;;;;3.17;1.45;;;;;;;5.54;100.00;100679.78;5092741;28;20166;-77
2023/10/16 03:49:15;;;;;;;5.22;1.60;;;;;;;5.52;100.00;100682.25;5058203;28;20035;-78
2023/10/16 03:51:41;;;;;;;4.28;1.55;;;;;;;5.53;100.00;100683.84;5092558;28;20488;-79
2023/10/16 03:54:06;;;;;;;2.50;1.98;;;;;;;5.51;100.00;100683.50;5092852;28;20015;-77
2023/10/16 03:56:32;;;;;;;4.38;1.50;;;;;;;5.49;100.00;100682.38;5092912;28;20028;-78
2023/10/16 03:59:00;;;;;;;1.80;1.30;;;;;;;5.49;100.00;100688.81;5093010;28;20114;-77
2023/10/16 04:01:28;;;;;;;3.08;1.63;;;;;;;5.47;100.00;100682.81;5055275;28;20033;-78
2023/10/16 04:03:58;;;;;;;2.15;1.40;;;;;;;5.44;100.00;100691.41;5073782;28;20040;-78
2023/10/16 04:06:26;;;;;;;6.93;1.88;;;;;;;5.44;100.00;100702.75;5039929;28;20075;-77
2023/10/16 04:08:59;;;;;;;5.72;2.13;;;;;;;5.45;100.00;100698.69;5071052;28;20029;-78
2023/10/16 04:11:32;;;;;;;2.50;1.38;;;;;;;5.45;100.00;100695.84;5072423;28;20032;-77
2023/10/16 04:13:57;;;;;;;9.00;2.42;;;;;;;5.38;100.00;100694.78;5072204;28;20021;-79
2023/10/16 04:18:56;;;;;;;4.80;1.88;;;;;;;5.44;100.00;100680.88;5071668;28;20040;-78
2023/10/16 04:21:37;;;;;;;3.78;1.60;;;;;;;5.66;100.00;100706.53;5071799;28;20036;-79
2023/10/16 04:24:05;;;;;;;5.55;1.88;;;;;;;5.70;100.00;100708.03;5076275;28;20023;-78
2023/10/16 04:26:35;;;;;;;3.90;2.17;;;;;;;5.73;100.00;100706.34;5073126;28;20017;-80
2023/10/16 04:36:54;;;;;;;2.78;1.90;;;;;;;5.73;100.00;100704.31;5075679;28;20037;-77
2023/10/16 04:50:49;;;;;;;4.60;1.48;;;;;;;5.62;100.00;100698.16;5075809;28;20159;-78
2023/10/16 04:53:21;;;;;;;3.50;1.70;;;;;;;5.59;100.00;100696.22;5059348;28;20307;-77
2023/10/16 05:01:22;;;;;;;8.15;2.22;;;;;;;5.48;100.00;100704.25;5086445;28;20056;-79
2023/10/16 05:14:39;;;;;;;8.82;2.25;;;;;;;5.51;100.00;100692.00;5096357;28;20032;-77
2023/10/16 06:14:45;;;;;;;8.68;2.25;;;;;;;7.07;100.00;100723.97;5092609;28;20398;-79
2023/10/16 06:17:15;;;;;;;9.52;3.08;;;;;;;7.15;100.00;100721.69;5093427;28;20028;-78
2023/10/16 06:19:45;;;;;;;10.10;2.40;;;;;;;7.17;100.00;100734.19;5092408;28;20052;-79
2023/10/16 06:22:16;;;;;;;10.65;2.92;;;;;;;7.17;100.00;100734.19;5092722;28;20028;-79
2023/10/16 06:24:44;;;;;;;22.85;2.70;;;;;;;7.17;100.00;100736.22;5094583;28;20032;-79
2023/10/16 06:27:12;;;;;;;7.40;2.22;;;;;;;7.19;100.00;100736.56;5093924;28;20292;-79
2023/10/16 06:29:49;;;;;;;10.02;3.00;;;;;;;7.28;100.00;100748.78;5074149;28;20367;-78
2023/10/16 06:32:39;;;;;;;10.15;2.35;;;;;;;7.50;100.00;100737.47;5092891;28;20063;-78
2023/10/16 06:35:16;;;;;;;13.60;2.67;;;;;;;7.69;100.00;100738.41;5093065;28;20354;-78
2023/10/16 06:37:51;;;;;;;5.18;2.10;;;;;;;7.80;100.00;100748.16;5093465;28;20110;-79
2023/10/16 06:40:24;;;;;;;2.58;2.13;;;;;;;7.91;100.00;100748.56;5092620;28;20063;-79
2023/10/16 06:42:54;;;;;;;5.82;2.05;;;;;;;8.04;100.00;100754.16;5076743;28;20032;-81
2023/10/16 06:45:40;;;;;;;5.75;2.03;;;;;;;8.13;100.00;100757.06;5093889;28;20031;-77
2023/10/16 06:48:08;;;;;;;7.00;1.90;;;;;;;8.22;100.00;100759.97;5093742;28;20056;-80
2023/10/16 06:50:40;;;;;;;5.10;2.17;;;;;;;8.28;100.00;100766.66;5093194;28;20027;-78
2023/10/16 06:53:06;;;;;;;;;;;;;;;8.29;100.00;100756.06;5094107;28;20111;-78
2023/10/16 06:55:32;;;;;;;4.00;2.33;;;;;;;8.32;100.00;100764.47;5094488;28;19912;-78
2023/10/16 06:58:00;;;;;;;4.40;2.40;;;;;;;8.33;100.00;100757.53;5093137;28;20027;-78
2023/10/16 07:00:33;;;;;;;6.70;1.40;;;;;;;8.47;100.00;100772.44;5092769;28;20098;-79
2023/10/16 07:03:09;;;;;;;2.80;2.03;;;;;;;8.52;100.00;100766.94;5094404;28;20208;-79
2023/10/16 07:05:48;;;;;;;7.25;1.95;;;;;;;8.56;100.00;100763.97;5092982;28;20023;-78
2023/10/16 07:08:25;;;;;;;4.88;2.13;;;;;;;8.68;100.00;100769.56;5092845;28;20070;-79
2023/10/16 07:11:11;;;;;;;3.13;1.98;;;;;;;8.74;100.00;100772.59;5093288;28;20032;-80
2023/10/16 07:13:38;;;;;;;5.88;1.92;;;;;;;8.79;100.00;100769.91;5094263;28;20303;-77
2023/10/16 07:16:05;;;;;;;4.07;2.08;;;;;;;8.88;100.00;100774.06;5093357;28;20028;-80
2023/10/16 07:18:33;;;;;;;4.50;1.85;;;;;;;9.08;100.00;100780.13;5092461;28;20085;-80
2023/10/16 07:21:07;;;;;;;3.03;1.50;;;;;;;9.25;100.00;100785.06;5092904;28;20054;-78
2023/10/16 07:23:38;;;;;;;6.25;2.17;;;;;;;9.36;100.00;100778.13;5094232;28;20033;-77
2023/10/16 07:26:24;;;;;;;4.27;1.57;;;;;;;9.50;100.00;100780.34;5094235;28;20028;-80
2023/10/16 07:28:52;;;;;;;6.75;1.80;;;;;;;9.78;100.00;100781.22;5093945;28;20105;-78
2023/10/16 07:31:19;;;;;;;4.68;1.90;;;;;;;9.85;100.00;100764.56;5093813;28;20043;-77
2023/10/16 07:33:50;;;;;;;6.97;2.03;;;;;;;9.95;100.00;100777.53;5092642;28;20107;-78
2023/10/16 07:36:17;;;;;;;9.32;2.60;;;;;;;9.94;100.00;100778.03;5092798;28;20048;-80
2023/10/16 07:38:45;;;;;;;3.40;1.95;;;;;;;10.06;100.00;100789.28;5076379;28;20032;-79
2023/10/16 07:41:13;;;;;;;3.42;1.33;;;;;;;10.36;100.00;100787.47;5095940;28;20024;-78
2023/10/16 07:43:38;;;;;;;4.03;2.25;;;;;;;10.48;100.00;100800.00;5097546;28;20457;-81
2023/10/16 07:48:53;;;;;;;7.57;1.58;;;;;;;10.66;100.00;100802.00;5097306;28;20039;-79
2023/10/16 07:51:20;;;;;;;2.55;1.38;;;;;;;10.76;100.00;100800.69;5096347;28;20020;-81
2023/10/16 07:53:51;;;;;;;7.32;1.83;;;;;;;10.78;100.00;100800.97;5077109;28;20111;-78
2023/10/16 07:56:29;;;;;;;3.07;1.30;;;;;;;10.71;100.00;100801.34;5079229;28;20093;-79
2023/10/16 07:59:08;;;;;;;4.80;1.48;;;;;;;10.50;100.00;100797.44;5085393;28;20024;-80
2023/10/16 08:01:57;;;;;;;3.45;1.30;;;;;;;10.24;100.00;100791.31;5099938;28;20048;-80
2023/10/16 08:04:43;;;;;;;3.47;1.30;;;;;;;10.23;100.00;100771.81;5100348;28;20091;-80
2023/10/16 08:07:17;;;;;;;3.70;1.40;;;;;;;10.28;100.00;100777.66;5100741;28;20048;-78
2023/10/16 08:10:28;;;;;;;4.18;1.58;;;;;;;10.35;100.00;100780.19;5101408;28;20032;-78
2023/10/16 08:12:46;;;;;;;8.45;1.85;;;;;;;10.30;100.00;100777.16;5100284;28;20042;-77
2023/10/16 08:15:15;;;;;;;6.35;1.92;;;;;;;10.18;100.00;100778.97;5100657;28;20332;-78
2023/10/16 08:17:56;;;;;;;4.40;1.38;;;;;;;10.05;100.00;100778.31;5098499;28;20426;-78
2023/10/16 08:20:21;;;;;;;7.90;1.75;;;;;;;9.93;100.00;100782.97;5098823;28;20073;-79
2023/10/16 08:22:49;;;;;;;3.50;2.13;;;;;;;10.03;100.00;100766.59;5100062;28;20048;-79
2023/10/16 08:25:32;;;;;;;6.53;1.80;;;;;;;10.17;100.00;100771.66;5098849;28;20397;-78
2023/10/16 08:27:59;;;;;;;9.93;2.22;;;;;;;10.29;100.00;100782.09;5099360;28;20098;-79
2023/10/16 08:30:49;;;;;;;4.63;1.75;;;;;;;10.39;100.00;100788.56;5100420;28;20419;-79
2023/10/16 08:33:18;;;;;;;7.35;1.48;;;;;;;10.70;100.00;100783.41;5099534;28;20032;-77
2023/10/16 08:35:45;;;;;;;4.13;1.10;;;;;;;11.07;100.00;100780.38;5100380;28;20038;-78
2023/10/16 08:38:25;;;;;;;4.95;1.67;;;;;;;11.45;100.00;100771.91;5099775;28;20046;-78
2023/10/16 08:40:58;;;;;;;5.65;1.80;;;;;;;11.75;100.00;100767.84;5099296;28;20361;-78
2023/10/16 08:46:35;;;;;;;6.28;1.58;;;;;;;12.40;100.00;100773.78;5098863;28;20089;-77
2023/10/16 08:49:02;;;;;;;4.72;1.67;;;;;;;12.47;100.00;100756.97;5100198;28;20023;-78
2023/10/16 08:51:33;;;;;;;3.30;1.40;;;;;;;12.56;100.00;100768.34;5099457;28;20055;-77
2023/10/16 08:54:03;;;;;;;6.90;1.38;;;;;;;12.57;100.00;100772.00;5099820;28;20033;-80
2023/10/16 08:56:30;;;;;;;3.65;1.73;;;;;;;12.62;100.00;100769.22;5099556;28;20040;-79
2023/10/16 08:58:57;;;;;;;6.38;2.30;;;;;;;12.71;100.00;100765.44;5098668;28;20089;-79
2023/10/16 09:01:33;;;;;;;6.55;1.77;;;;;;;12.80;100.00;100773.16;5099343;28;20040;-77
2023/10/16 09:04:08;;;;;;;8.25;1.52;;;;;;;12.88;100.00;100780.06;5098578;28;20392;-78
2023/10/16 09:06:43;;;;;;;4.80;1.98;;;;;;;12.78;100.00;100788.00;5100171;28;20024;-79
2023/10/16 09:09:13;;;;;;;3.78;1.33;;;;;;;12.50;100.00;100784.66;5096196;28;20024;-79
2023/10/16 09:12:03;;;;;;;6.25;1.63;;;;;;;12.30;100.00;100769.41;5096661;28;20024;-79
2023/10/16 09:14:32;;;;;;;4.57;1.95;;;;;;;12.23;100.00;100773.44;5096184;28;20055;-78
2023/10/16 09:17:03;;;;;;;7.28;1.85;;;;;;;12.31;100.00;100768.13;5097022;28;20028;-80
2023/10/16 09:19:46;;;;;;;8.88;1.45;;;;;;;12.27;100.00;100760.50;5097539;28;20461;-78
2023/10/16 09:22:13;;;;;;;6.15;1.42;;;;;;;12.20;100.00;100777.31;5080065;28;20032;-79
2023/10/16 09:24:44;;;;;;;4.75;1.70;;;;;;;12.30;100.00;100784.53;5095536;28;20043;-80
2023/10/16 09:27:30;;;;;;;2.30;1.63;;;;;;;12.18;100.00;100762.69;5096604;28;20028;-79
2023/10/16 09:30:00;;;;;;;4.45;1.48;;;;;;;12.42;100.00;100783.47;5096289;28;20032;-78
2023/10/16 09:32:34;;;;;;;3.95;1.38;;;;;;;12.61;100.00;100779.09;5096500;28;20020;-79
2023/10/16 09:35:06;;;;;;;4.43;1.30;;;;;;;12.75;100.00;100791.84;5094862;28;20028;-81
2023/10/16 09:37:36;;;;;;;6.57;1.63;;;;;;;12.80;100.00;100776.03;5094907;28;20472;-78
2023/10/16 09:46:15;;;;;;;3.58;1.38;;;;;;;12.73;100.00;100790.78;5095897;28;20546;-79
2023/10/16 09:48:37;;;;;;;2.05;1.08;;;;;;;12.76;100.00;100787.69;5094889;28;20461;-78
2023/10/16 09:51:19;;;;;;;4.80;1.40;;;;;;;12.82;100.00;100784.91;5095948;28;20388;-80
2023/10/16 09:53:46;;;;;;;4.95;1.38;;;;;;;12.97;100.00;100791.41;5094536;28;20126;-79
2023/10/16 09:56:23;;;;;;;2.92;1.40;;;;;;;12.95;100.00;100786.16;5095908;28;20024;-79
2023/10/16 09:58:51;;;;;;;3.70;1.00;;;;;;;12.67;100.00;100780.00;5094279;28;20056;-78
2023/10/16 10:01:29;;;;;;;4.15;1.13;;;;;;;12.43;100.00;100787.91;5095099;28;20521;-80
2023/10/16 10:03:56;;;;;;;7.03;1.20;;;;;;;12.39;100.00;100792.28;5094457;28;20028;-79
2023/10/16 10:06:24;;;;;;;4.75;1.15;;;;;;;12.32;100.00;100792.63;5093795;28;20511;-77
2023/10/16 10:12:14;;;;;;;5.28;1.05;;;;;;;12.11;100.00;100797.47;5095159;28;20051;-77
2023/10/16 10:14:39;;;;;;;6.13;2.25;;;;;;;12.06;100.00;100798.16;5080463;28;20039;-78
2023/10/16 10:17:09;;;;;;;6.13;1.98;;;;;;;12.05;100.00;100800.22;5093827;28;20028;-78
2023/10/16 10:19:39;;;;;;;3.80;1.20;;;;;;;12.04;100.00;100797.84;5060385;28;20031;-80
2023/10/16 10:22:26;;;;;;;3.25;1.40;;;;;;;12.12;100.00;100807.63;5094248;28;20051;-76
2023/10/16 10:25:35;;;;;;;7.78;1.77;;;;;;;12.10;100.00;100799.53;5094961;28;20023;-79
2023/10/16 10:28:09;;;;;;;6.03;1.75;;;;;;;12.08;100.00;100807.81;5036833;28;20071;-77
2023/10/16 10:30:43;;;;;;;8.00;1.90;;;;;;;12.02;100.00;100800.38;5063673;28;20040;-78
2023/10/16 10:33:12;;;;;;;7.30;1.88;;;;;;;11.94;100.00;100802.06;5093994;28;20027;-78
2023/10/16 10:35:39;;;;;;;9.35;1.92;;;;;;;11.95;100.00;100797.91;5092605;28;20051;-78
2023/10/16 10:38:23;;;;;;;4.53;1.17;;;;;;;11.83;100.00;100797.69;5093445;28;20032;-77
2023/10/16 10:41:15;;;;;;;4.47;1.42;;;;;;;11.65;100.00;100800.69;5094687;28;20411;-77
2023/10/16 10:44:08;;;;;;;3.37;1.37;;;;;;;11.44;100.00;100790.34;5094752;28;20036;-78
2023/10/16 10:46:36;;;;;;;7.95;2.30;;;;;;;11.40;100.00;100781.16;5093589;28;20373;-80
2023/10/16 10:49:02;;;;;;;7.55;1.65;;;;;;;11.47;100.00;100780.00;5076607;28;20036;-78
2023/10/16 10:51:35;;;;;;;5.53;1.33;;;;;;;11.70;100.00;100784.91;5094579;28;20064;-79
2023/10/16 10:54:06;;;;;;;3.80;1.70;;;;;;;11.86;100.00;100773.03;5093400;28;20499;-77
2023/10/16 10:56:53;;;;;;;4.30;1.40;;;;;;;12.06;100.00;100778.84;5093111;28;20035;-79
2023/10/16 10:59:41;;;;;;;3.72;1.00;;;;;;;12.14;100.00;100773.56;5062081;28;20059;-79
2023/10/16 11:05:01;;;;;;;4.75;1.58;;;;;;;12.15;100.00;100775.13;5095436;28;20068;-80
2023/10/16 11:07:59;;;;;;;8.48;1.40;;;;;;;12.13;100.00;100772.75;5094724;28;20058;-79
2023/10/16 11:10:25;;;;;;;6.20;1.20;;;;;;;12.13;100.00;100769.88;5080413;28;20028;-78
2023/10/16 11:13:03;;;;;;;4.95;1.42;;;;;;;12.19;100.00;100759.34;5093758;28;20039;-78
2023/10/16 11:15:30;;;;;;;8.18;1.60;;;;;;;12.27;100.00;100751.13;5092543;28;20118;-80
2023/10/16 11:18:05;;;;;;;8.18;1.52;;;;;;;12.36;100.00;100759.63;5094851;28;20027;-79
2023/10/16 11:20:45;;;;;;;5.07;1.30;;;;;;;12.54;100.00;100762.31;5092967;28;20016;-79
2023/10/16 11:23:16;;;;;;;5.60;2.00;;;;;;;12.70;100.00;100767.53;5094216;28;20019;-79
2023/10/16 11:25:46;;;;;;;4.80;1.02;;;;;;;12.73;100.00;100765.75;5094048;28;20042;-78
2023/10/16 11:28:28;;;;;;;5.80;1.50;;;;;;;12.56;100.00;100756.88;5076232;28;20121;-78
2023/10/16 11:31:17;;;;;;;3.72;1.20;;;;;;;12.42;100.00;100766.28;5093371;28;20405;-79
2023/10/16 11:33:44;;;;;;;3.25;1.10;;;;;;;12.36;100.00;100762.50;5093558;28;20032;-79
2023/10/16 11:36:28;;;;;;;2.60;1.77;;;;;;;12.35;100.00;100749.47;5092559;28;20051;-79
2023/10/16 11:38:58;;;;;;;5.10;1.65;;;;;;;12.36;100.00;100758.81;5094148;28;20050;-79
2023/10/16 11:41:26;;;;;;;5.22;1.08;;;;;;;12.32;100.00;100750.44;5093158;28;20164;-80
2023/10/16 11:43:52;;;;;;;8.10;1.33;;;;;;;12.22;100.00;100738.28;5094194;28;20105;-78
2023/10/16 11:46:31;;;;;;;4.75;1.17;;;;;;;12.24;100.00;100755.78;5092793;28;20121;-78
2023/10/16 11:51:48;;;;;;;4.07;1.95;;;;;;;12.23;100.00;100759.13;5092940;28;20028;-80
2023/10/16 11:54:20;;;;;;;5.05;1.42;;;;;;;12.26;100.00;100753.19;5095118;28;20078;-79
2023/10/16 11:56:59;;;;;;;3.22;1.25;;;;;;;12.18;100.00;100752.00;5093250;28;20020;-79
2023/10/16 11:59:25;;;;;;;2.88;0.93;;;;;;;12.03;100.00;100756.16;5094586;28;20081;-80
2023/10/16 12:01:52;;;;;;;5.18;1.10;;;;;;;11.83;100.00;100754.72;5092632;28;20044;-80
2023/10/16 12:04:23;;;;;;;2.95;1.40;;;;;;;11.66;100.00;100750.75;5075952;28;20127;-79
2023/10/16 12:06:49;;;;;;;2.50;1.23;;;;;;;11.53;100.00;100755.94;5094139;28;20031;-80
2023/10/16 12:09:19;;;;;;;5.72;1.85;;;;;;;11.37;100.00;100750.66;5093940;28;20024;-79
2023/10/16 12:11:50;;;;;;;1.42;0.80;;;;;;;11.23;100.00;100755.03;5092689;28;20047;-78
2023/10/16 12:14:18;;;;;;;5.07;1.95;;;;;;;11.16;100.00;100731.75;5059250;28;20115;-80
2023/10/16 12:16:47;;;;;;;4.15;1.55;;;;;;;11.30;100.00;100736.72;5093534;28;20125;-78
2023/10/16 12:19:16;;;;;;;5.00;1.17;;;;;;;11.47;100.00;100748.53;5093315;28;20496;-79
2023/10/16 12:21:50;;;;;;;4.60;1.13;;;;;;;11.62;100.00;100744.41;5092764;28;20134;-78
2023/10/16 12:24:17;;;;;;;5.28;1.08;;;;;;;11.82;100.00;100740.91;5093569;28;20366;-86
2023/10/16 12:26:43;;;;;;;2.92;1.00;;;;;;;12.06;100.00;100747.34;5094809;28;20032;-84
2023/10/16 12:29:11;;;;;;;3.88;1.27;;;;;;;12.28;100.00;100736.31;5095278;28;20385;-84
2023/10/16 12:31:36;;;;;;;3.38;0.90;;;;;;;12.44;100.00;100717.06;5096907;28;20129;-87
2023/10/16 12:34:03;;;;;;;3.63;0.95;;;;;;;12.54;100.00;100725.06;5095327;28;20020;-85
2023/10/16 12:36:31;;;;;;;5.03;0.90;;;;;;;12.50;100.00;100727.34;5076582;28;20438;-85
2023/10/16 12:38:56;;;;;;;4.63;1.10;;;;;;;12.37;100.00;100728.91;5095505;28;20453;-87
2023/10/16 12:41:23;;;;;;;2.70;0.90;;;;;;;12.16;100.00;100733.72;5076033;28;20465;-86
2023/10/16 12:43:49;;;;;;;3.83;1.33;;;;;;;12.06;100.00;100750.22;5078985;28;20016;-86
2023/10/16 12:46:14;;;;;;;1.60;0.90;;;;;;;12.02;100.00;100757.41;5063440;28;20472;-86
2023/10/16 12:48:40;;;;;;;2.25;0.88;;;;;;;11.92;100.00;100744.47;5063225;28;20019;-85
2023/10/16 12:51:11;;;;;;;2.67;0.80;;;;;;;11.98;100.00;100748.25;5098281;28;20052;-85
2023/10/16 12:53:38;;;;;;;3.13;0.70;;;;;;;11.74;100.00;100711.06;5080311;28;20468;-85
2023/10/16 12:56:06;;;;;;;4.32;0.90;;;;;;;12.04;100.00;100757.72;5080324;28;20039;-84
2023/10/16 12:58:33;;;;;;;2.78;0.70;;;;;;;11.99;100.00;100746.97;5079765;28;20395;-84
2023/10/16 13:01:00;;;;;;;2.20;1.02;;;;;;;12.04;100.00;100758.53;5098531;28;20043;-85
2023/10/16 13:03:25;;;;;;;3.70;0.98;;;;;;;11.93;100.00;100729.66;5080636;28;20031;-85
2023/10/16 13:05:53;;;;;;;2.85;0.80;;;;;;;12.11;100.00;100754.50;5099859;28;20012;-84
2023/10/16 13:08:20;;;;;;;3.60;1.08;;;;;;;12.02;100.00;100749.63;5080391;28;20038;-84
2023/10/16 13:10:48;;;;;;;2.55;0.85;;;;;;;11.84;100.00;100746.94;5065689;28;20038;-85
2023/10/16 13:13:20;;;;;;;3.80;1.05;;;;;;;11.59;100.00;100747.47;5065914;28;20527;-81
2023/10/16 13:15:51;;;;;;;4.93;1.10;;;;;;;11.73;100.00;100750.38;5080343;28;20028;-82
2023/10/16 13:18:30;;;;;;;5.07;1.23;;;;;;;11.80;100.00;100750.00;5063909;28;20035;-85
2023/10/16 13:23:41;;;;;;;2.08;0.65;;;;;;;11.75;100.00;100752.75;5087103;28;20047;-88
2023/10/16 13:26:07;;;;;;;5.03;0.80;;;;;;;11.64;100.00;100747.59;5064154;28;20024;-88
2023/10/16 13:29:09;;;;;;;2.90;0.57;;;;;;;11.53;100.00;100727.31;5101572;28;20028;-90
2023/10/16 13:31:41;;;;;;;1.55;0.65;;;;;;;11.48;100.00;100715.75;5102052;28;20067;-91
2023/10/16 13:34:16;;;;;;;3.13;0.40;;;;;;;11.58;100.00;100758.13;5095909;28;20043;-90
2023/10/16 13:36:56;;;;;;;2.55;0.70;;;;;;;11.49;100.00;100741.03;5097590;28;20044;-90
2023/10/16 13:39:25;;;;;;;1.75;0.63;;;;;;;11.48;100.00;100742.31;5068340;28;20062;-90
2023/10/16 13:42:14;;;;;;;0.50;0.50;;;;;;;11.59;100.00;100738.88;5075878;28;20032;-91
2023/10/16 13:44:42;;;;;;;1.85;0.75;;;;;;;11.75;100.00;100744.97;5087122;28;20114;-90
2023/10/16 13:47:08;;;;;;;0.75;0.55;;;;;;;11.63;100.00;100708.78;5091308;28;20028;-91